createdAt,value
2019-05-17T00:00:47.470Z,62.60
2019-05-17T00:06:06.868Z,64.83
2019-05-17T00:11:27.324Z,68.28
2019-05-17T00:16:46.925Z,80.67
2019-05-17T00:22:07.306Z,74.20
2019-05-17T00:27:26.536Z,77.60
2019-05-17T00:32:47.347Z,71.73
2019-05-17T00:38:06.597Z,67.40
2019-05-17T00:43:26.257Z,77.03
2019-05-17T00:48:46.592Z,79.30
2019-05-17T00:54:06.871Z,78.97
2019-05-17T00:59:26.296Z,76.33
2019-05-17T01:04:47.421Z,77.50
2019-05-17T01:10:07.744Z,75.43
2019-05-17T01:15:27.308Z,78.10
2019-05-17T01:20:47.429Z,81.37
2019-05-17T01:26:07.547Z,77.93
2019-05-17T01:31:26.671Z,78.60
2019-05-17T01:36:46.452Z,75.60
2019-05-17T01:42:06.755Z,87.53
2019-05-17T01:47:27.241Z,79.10
2019-05-17T01:52:46.306Z,83.63
2019-05-17T01:58:07.444Z,82.83
2019-05-17T02:03:26.743Z,83.63
2019-05-17T02:08:47.533Z,83.50
2019-05-17T02:14:06.939Z,91.83
2019-05-17T02:19:26.546Z,91.87
2019-05-17T02:24:46.400Z,88.43
2019-05-17T02:30:08.808Z,87.80
2019-05-17T02:35:27.465Z,88.90
2019-05-17T02:40:46.120Z,79.73
2019-05-17T02:46:04.841Z,73.35
2019-05-17T02:51:23.958Z,77.03
2019-05-17T02:56:43.731Z,81.60
2019-05-17T03:02:03.396Z,83.97
2019-05-17T03:07:23.334Z,79.97
2019-05-17T03:12:44.478Z,83.60
2019-05-17T03:18:03.786Z,76.87
2019-05-17T03:23:23.608Z,72.97
2019-05-17T03:28:42.907Z,78.70
2019-05-17T03:34:06.300Z,72.87
2019-05-17T03:39:22.824Z,79.73
2019-05-17T03:44:43.820Z,73.87
2019-05-17T03:50:03.297Z,81.00
2019-05-17T03:55:23.463Z,75.13
2019-05-17T04:00:42.960Z,74.93
2019-05-17T04:06:03.940Z,78.87
2019-05-17T04:11:31.168Z,86.37
2019-05-17T04:16:42.935Z,88.93
2019-05-17T04:22:03.614Z,90.20
2019-05-17T04:27:22.937Z,85.47
2019-05-17T04:32:44.221Z,71.37
2019-05-17T04:38:04.161Z,62.57
2019-05-17T04:43:23.230Z,56.98
2019-05-17T04:48:43.816Z,52.17
2019-05-17T04:54:03.179Z,52.00
2019-05-17T04:59:24.253Z,50.17
2019-05-17T05:04:43.519Z,54.80
2019-05-17T05:10:03.189Z,56.50
2019-05-17T05:15:32.223Z,49.73
2019-05-17T05:20:52.728Z,45.97
2019-05-17T05:26:12.086Z,43.00
2019-05-17T05:31:32.185Z,46.83
2019-05-17T05:36:52.530Z,41.23
2019-05-17T05:42:13.845Z,36.73
2019-05-17T05:47:32.395Z,39.30
2019-05-17T05:52:52.434Z,31.17
2019-05-17T05:58:12.121Z,37.37
2019-05-17T06:03:32.018Z,40.27
2019-05-17T06:08:52.067Z,35.37
2019-05-17T06:14:12.222Z,34.80
2019-05-17T06:19:31.519Z,36.83
2019-05-17T06:24:52.020Z,32.27
2019-05-17T06:30:12.558Z,34.40
2019-05-17T06:35:32.527Z,35.70
2019-05-17T06:40:52.391Z,31.97
2019-05-17T06:46:12.433Z,32.10
2019-05-17T06:51:31.683Z,32.97
2019-05-17T06:56:52.562Z,32.10
2019-05-17T07:02:11.436Z,30.17
2019-05-17T07:07:30.706Z,26.47
2019-05-17T07:12:57.776Z,22.23
2019-05-17T07:18:10.380Z,22.90
2019-05-17T07:23:30.263Z,25.13
2019-05-17T07:28:49.790Z,23.40
2019-05-17T07:34:09.252Z,22.37
2019-05-17T07:39:29.526Z,24.37
2019-05-17T07:44:49.660Z,22.10
2019-05-17T07:50:11.429Z,20.63
2019-05-17T07:55:30.265Z,20.00
2019-05-17T08:00:51.146Z,20.37
2019-05-17T08:06:10.595Z,19.33
2019-05-17T08:11:30.354Z,17.73
2019-05-17T08:16:50.188Z,16.73
2019-05-17T08:22:09.780Z,16.67
2019-05-17T08:27:29.681Z,17.77
2019-05-17T08:32:50.515Z,15.73
2019-05-17T08:38:10.256Z,19.53
2019-05-17T08:43:39.872Z,13.27
2019-05-17T08:48:49.578Z,14.63
2019-05-17T08:54:10.258Z,15.63
2019-05-17T08:59:29.648Z,12.87
2019-05-17T09:04:49.801Z,15.47
2019-05-17T09:10:09.984Z,13.60
2019-05-17T09:15:29.639Z,12.30
2019-05-17T09:20:49.506Z,12.30
2019-05-17T09:26:10.089Z,9.63
2019-05-17T09:31:29.820Z,12.97
2019-05-17T09:36:49.718Z,9.53
2019-05-17T09:42:10.355Z,8.80
2019-05-17T09:47:30.064Z,9.77
2019-05-17T09:52:49.447Z,6.13
2019-05-17T09:58:09.850Z,7.97
2019-05-17T10:03:30.718Z,7.50
2019-05-17T10:08:49.577Z,7.47
2019-05-17T10:14:11.512Z,7.00
2019-05-17T10:19:29.454Z,5.50
2019-05-17T10:24:48.114Z,6.23
2019-05-17T10:30:11.415Z,6.97
2019-05-17T10:35:30.046Z,6.47
2019-05-17T10:40:50.129Z,7.73
2019-05-17T10:46:10.627Z,6.80
2019-05-17T10:51:29.669Z,5.33
2019-05-17T10:56:50.248Z,5.20
2019-05-17T11:02:09.921Z,10.03
2019-05-17T11:07:28.882Z,10.60
2019-05-17T11:12:47.458Z,8.00
2019-05-17T11:18:06.105Z,8.60
2019-05-17T11:23:24.742Z,8.03
2019-05-17T11:28:43.387Z,11.37
2019-05-17T11:34:02.037Z,8.77
2019-05-17T11:39:20.636Z,5.63
2019-05-17T11:44:39.225Z,9.17
2019-05-17T11:49:57.873Z,10.73
2019-05-17T11:55:16.508Z,8.03
2019-05-17T12:00:35.328Z,8.13
2019-05-17T12:05:53.995Z,8.67
2019-05-17T12:11:12.626Z,6.73
2019-05-17T12:16:31.127Z,7.80
2019-05-17T12:21:49.810Z,8.30
2019-05-17T12:27:08.455Z,5.50
2019-05-17T12:32:27.096Z,6.23
2019-05-17T12:37:45.737Z,5.40
2019-05-17T12:43:04.690Z,6.00
2019-05-17T12:48:23.598Z,5.53
2019-05-17T12:53:42.248Z,4.93
2019-05-17T12:59:00.967Z,6.40
2019-05-17T13:04:20.631Z,5.23
2019-05-17T13:09:40.119Z,6.60
2019-05-17T13:14:58.756Z,7.53
2019-05-17T13:20:17.815Z,5.17
2019-05-17T13:25:36.435Z,6.77
2019-05-17T13:30:55.114Z,5.67
2019-05-17T13:36:13.780Z,5.03
2019-05-17T13:41:32.405Z,3.40
2019-05-17T13:46:51.040Z,4.20
2019-05-17T13:52:09.691Z,4.00
2019-05-17T13:57:28.402Z,3.87
2019-05-17T14:02:47.035Z,7.77
2019-05-17T14:08:06.007Z,4.83
2019-05-17T14:13:24.665Z,5.27
2019-05-17T14:18:43.414Z,4.67
2019-05-17T14:24:02.049Z,5.40
2019-05-17T14:29:20.620Z,4.97
2019-05-17T14:34:39.321Z,6.13
2019-05-17T14:39:57.980Z,5.67
2019-05-17T14:45:16.621Z,4.90
2019-05-17T14:50:35.254Z,4.80
2019-05-17T14:55:53.889Z,5.47
2019-05-17T15:01:12.635Z,7.40
2019-05-17T15:06:31.302Z,4.43
2019-05-17T15:11:49.963Z,4.23
2019-05-17T15:17:08.631Z,6.13
2019-05-17T15:22:27.262Z,7.17
2019-05-17T15:27:45.912Z,5.10
2019-05-17T15:33:04.619Z,9.73
2019-05-17T15:38:23.251Z,6.83
2019-05-17T15:43:41.977Z,7.10
2019-05-17T15:49:00.820Z,8.57
2019-05-17T15:54:19.626Z,9.40
2019-05-17T15:59:38.246Z,7.37
2019-05-17T16:04:56.880Z,7.27
2019-05-17T16:10:21.515Z,6.62
2019-05-17T16:15:40.140Z,9.37
2019-05-17T16:21:01.876Z,8.53
2019-05-17T16:26:20.901Z,7.97
2019-05-17T16:31:39.484Z,13.57
2019-05-17T16:36:58.053Z,11.87
2019-05-17T16:42:17.101Z,8.40
2019-05-17T16:47:35.747Z,9.43
2019-05-17T16:53:05.448Z,11.90
2019-05-17T16:58:14.764Z,12.20
2019-05-17T17:03:43.786Z,8.10
2019-05-17T17:08:53.816Z,13.90
2019-05-17T17:14:12.466Z,13.37
2019-05-17T17:19:31.111Z,8.03
2019-05-17T17:24:49.674Z,12.43
2019-05-17T17:30:10.052Z,9.80
2019-05-17T17:35:28.706Z,10.23
2019-05-17T17:40:47.262Z,7.80
2019-05-17T17:46:05.970Z,9.47
2019-05-17T17:51:24.649Z,8.33
2019-05-17T17:56:43.295Z,8.80
2019-05-17T18:02:01.973Z,6.70
2019-05-17T18:07:20.644Z,7.73
2019-05-17T18:12:39.296Z,8.77
2019-05-17T18:18:11.908Z,7.13
2019-05-17T18:23:30.554Z,6.03
2019-05-17T18:28:49.193Z,6.23
2019-05-17T18:34:07.820Z,5.17
2019-05-17T18:39:26.460Z,6.67
2019-05-17T18:44:45.195Z,7.43
2019-05-17T18:50:04.550Z,6.87
2019-05-17T18:55:23.230Z,5.73
2019-05-17T19:00:41.874Z,4.90
2019-05-17T19:06:00.529Z,5.83
2019-05-17T19:11:19.541Z,5.27
2019-05-17T19:16:38.249Z,5.87
2019-05-17T19:21:57.952Z,6.33
2019-05-17T19:27:16.545Z,5.53
2019-05-17T19:32:35.417Z,5.50
2019-05-17T19:43:33.617Z,7.80
2019-05-17T19:48:54.039Z,7.57
2019-05-17T19:54:21.565Z,8.03
2019-05-17T19:59:40.357Z,9.07
2019-05-17T20:04:59.093Z,7.05
2019-05-17T20:10:18.745Z,9.43
2019-05-17T20:15:38.510Z,8.47
2019-05-17T20:20:57.304Z,8.60
2019-05-17T20:26:24.192Z,7.67
2019-05-17T20:31:43.483Z,9.10
2019-05-17T20:37:02.515Z,6.80
2019-05-17T20:42:23.157Z,7.10
2019-05-17T20:47:41.860Z,7.33
2019-05-17T20:53:00.517Z,8.37
2019-05-17T20:58:20.888Z,7.70
2019-05-17T21:03:42.612Z,6.67
2019-05-17T21:09:03.823Z,6.07
2019-05-17T21:14:22.985Z,9.50
2019-05-17T21:19:41.600Z,10.60
2019-05-17T21:25:00.205Z,9.47
2019-05-17T21:30:19.176Z,12.07
2019-05-17T21:35:37.842Z,11.03
2019-05-17T21:40:56.748Z,11.40
2019-05-17T21:46:15.356Z,10.27
2019-05-17T21:51:34.015Z,16.63
2019-05-17T21:56:52.681Z,11.07
2019-05-17T22:02:11.385Z,10.33
2019-05-17T22:07:30.151Z,12.73
2019-05-17T22:12:48.805Z,15.95
2019-05-17T22:18:07.857Z,13.07
2019-05-17T22:23:26.492Z,14.43
2019-05-17T22:28:45.491Z,14.37
2019-05-17T22:34:04.135Z,15.87
2019-05-17T22:39:22.777Z,13.10
2019-05-17T22:44:41.416Z,12.57
2019-05-17T22:50:00.067Z,14.87
2019-05-17T22:55:18.695Z,21.23
2019-05-17T23:00:37.351Z,15.90
2019-05-17T23:05:55.923Z,16.33
2019-05-17T23:11:14.558Z,14.63
2019-05-17T23:16:33.265Z,16.33
2019-05-17T23:21:51.986Z,17.60
2019-05-17T23:27:10.488Z,19.50
2019-05-17T23:32:29.161Z,20.70
2019-05-17T23:37:47.825Z,18.15
2019-05-17T23:43:06.466Z,21.83
2019-05-17T23:48:25.043Z,19.50
2019-05-17T23:53:44.054Z,25.10
2019-05-17T23:59:02.705Z,24.13
